Terminal Aerodrome Forecast
Issued by NWS

Home | Current Version | Previous Version | Text Only | Print | Product List | Glossary On
Versions: 1 2 3 4 5 6 7 8 9 10 11 12 13 14 15 16 17 18 19 20 21 22 23 24 25 26
000
FTUS41 KBUF 311730
TAFJHW
TAF
KJHW 311730Z 3118/0118 26013G20KT P6SM BKN045
     FM312300 24008KT P6SM SCT060
     FM010300 23007KT P6SM VCSH BKN040
     FM010700 23005KT P6SM BKN060
     FM011100 24004KT P6SM SCT045
     FM011600 26011KT P6SM BKN045
      AMD LTD TO CLD VIS AND WIND=

USA.gov is the U.S. government's official web portal to all federal, state and local government web resources and services.